Time;durP1;ratioP1;P1;durP2;ratioP2;P2;SDS_P1;SDS_P2;PMS_P1;PMS_P2;Temp;Humidity;BMP_temperature;BMP_pressure;BME280_temperature;BME280_humidity;BME280_pressure;Samples;Min_cycle;Max_cycle;Signal;HPM_P1;HPM_P2
2021/10/28 00:19:48;;;;;;;;;;;6.50;99.90;;;;;;20868492;28;19966;-79
2021/10/28 00:29:49;;;;;;;;;;;6.50;99.90;;;;;;20871441;28;19917;-79
2021/10/28 00:39:50;;;;;;;;;;;6.50;99.90;;;;;;20867619;28;19917;-79
2021/10/28 00:49:50;;;;;;;;;;;6.20;99.90;;;;;;20876177;28;19925;-80
2021/10/28 00:59:51;;;;;;;;;;;6.10;99.90;;;;;;20885678;28;19940;-80
2021/10/28 01:09:53;;;;;;;;;;;5.90;99.90;;;;;;20877596;28;19960;-79
2021/10/28 01:19:54;;;;;;;;;;;5.80;99.90;;;;;;20888238;28;19951;-81
2021/10/28 01:29:55;;;;;;;;;;;5.80;99.90;;;;;;20882603;28;19917;-80
2021/10/28 01:39:55;;;;;;;;;;;5.90;99.90;;;;;;20884644;28;19917;-80
2021/10/28 01:49:56;;;;;;;;;;;5.90;99.90;;;;;;20891859;28;19917;-79
2021/10/28 01:59:57;;;;;;;;;;;5.80;99.90;;;;;;20873521;28;19933;-78
2021/10/28 02:09:57;;;;;;;;;;;5.90;99.90;;;;;;20854380;28;20384;-79
2021/10/28 02:19:58;;;;;;;;;;;5.80;99.90;;;;;;20853642;28;20372;-79
2021/10/28 02:29:59;;;;;;;;;;;5.90;99.90;;;;;;20855167;28;19995;-79
2021/10/28 02:40:00;;;;;;;;;;;5.90;99.90;;;;;;20873174;28;19917;-80
2021/10/28 02:50:01;;;;;;;;;;;6.00;99.90;;;;;;20856870;28;19963;-80
2021/10/28 03:00:02;;;;;;;;;;;6.10;99.90;;;;;;20876183;28;19924;-80
2021/10/28 03:10:04;;;;;;;;;;;6.20;99.90;;;;;;20878284;28;19962;-79
2021/10/28 03:30:07;;;;;;;;;;;6.50;99.90;;;;;;20880512;28;19921;-78
2021/10/28 04:30:48;;;;;;;;;;;6.80;99.90;;;;;;20994763;28;20387;-77
2021/10/28 04:40:49;;;;;;;;;;;6.80;99.90;;;;;;20949917;28;19996;-78
2021/10/28 04:50:50;;;;;;;;;;;6.80;99.90;;;;;;20928027;28;19916;-79
2021/10/28 05:00:51;;;;;;;;;;;6.80;99.90;;;;;;20921835;28;19913;-80
2021/10/28 05:10:52;;;;;;;;;;;6.90;99.90;;;;;;20932354;28;19920;-79
2021/10/28 05:20:53;;;;;;;;;;;6.80;99.90;;;;;;21006197;28;20333;-80
2021/10/28 05:30:53;;;;;;;;;;;6.90;99.90;;;;;;21004673;28;19920;-79
2021/10/28 05:40:54;;;;;;;;;;;6.90;99.90;;;;;;20996233;28;19912;-75
2021/10/28 05:50:55;;;;;;;;;;;6.90;99.90;;;;;;20972541;28;19960;-79
2021/10/28 06:01:00;;;;;;;;;;;6.90;99.90;;;;;;20964697;28;19913;-80
2021/10/28 06:11:01;;;;;;;;;;;6.80;99.90;;;;;;20966035;28;19947;-81
2021/10/28 06:21:01;;;;;;;;;;;6.80;99.90;;;;;;20993225;28;19917;-80
2021/10/28 06:31:02;;;;;;;;;;;6.80;99.90;;;;;;20993228;28;19916;-82
2021/10/28 06:41:03;;;;;;;;;;;6.80;99.90;;;;;;20979963;28;19920;-82
2021/10/28 06:51:04;;;;;;;;;;;6.80;99.90;;;;;;20993859;28;19916;-81
2021/10/28 07:11:30;;;;;;;;;;;6.90;99.90;;;;;;20992763;28;19917;-82
2021/10/28 08:13:49;;;;;;;;;;;7.50;99.90;;;;;;20965674;28;19959;-80
2021/10/28 08:33:51;;;;;;;;;;;7.70;99.90;;;;;;20959238;28;19927;-80
2021/10/28 08:43:54;;;;;;;;;;;7.80;99.90;;;;;;20956617;28;19940;-81
2021/10/28 08:54:41;;;;;;;;;;;8.00;99.90;;;;;;20977342;28;19921;-80
2021/10/28 09:25:39;;;;;;;;;;;8.20;99.90;;;;;;20987796;28;19920;-80
2021/10/28 09:35:57;;;;;;;;;;;8.10;99.90;;;;;;20998319;28;19912;-83
2021/10/28 10:06:54;;;;;;;;;;;8.50;99.90;;;;;;20985689;28;19917;-82
2021/10/28 10:16:54;;;;;;;;;;;8.40;99.90;;;;;;20955044;28;19913;-81
2021/10/28 12:13:54;;;;;;;;;;;9.40;99.90;;;;;;20967549;28;19920;-79
2021/10/28 13:35:30;;;;;;;;;;;14.30;99.90;;;;;;20948060;28;19955;-82
2021/10/28 15:28:46;;;;;;;;;;;13.50;99.90;;;;;;20920874;28;19968;-81
2021/10/28 16:29:51;;;;;;;;;;;9.60;99.90;;;;;;20933484;28;19917;-82
2021/10/28 16:39:53;;;;;;;;;;;9.30;99.90;;;;;;20907525;28;20024;-81
2021/10/28 16:49:53;;;;;;;;;;;8.80;99.90;;;;;;20940302;28;19943;-82
2021/10/28 16:59:54;;;;;;;;;;;8.60;99.90;;;;;;20902895;28;19917;-80
2021/10/28 17:09:55;;;;;;;;;;;8.30;99.90;;;;;;20899825;28;20019;-81
2021/10/28 17:20:02;;;;;;;;;;;8.10;99.90;;;;;;20875822;28;20002;-81
2021/10/28 17:30:04;;;;;;;;;;;7.80;99.90;;;;;;20899236;28;19925;-81
2021/10/28 17:40:05;;;;;;;;;;;7.80;99.90;;;;;;20927916;28;19924;-79
2021/10/28 17:50:06;;;;;;;;;;;7.70;99.90;;;;;;20955473;28;19925;-81
2021/10/28 18:00:08;;;;;;;;;;;7.60;99.90;;;;;;20936135;28;19996;-81
2021/10/28 18:10:10;;;;;;;;;;;7.60;99.90;;;;;;20952191;28;19923;-81
2021/10/28 18:20:10;;;;;;;;;;;7.50;99.90;;;;;;20969954;28;19920;-81
2021/10/28 18:30:13;;;;;;;;;;;7.30;99.90;;;;;;20990708;28;19916;-82
2021/10/28 18:40:14;;;;;;;;;;;7.20;99.90;;;;;;20981958;28;19956;-81
2021/10/28 18:50:15;;;;;;;;;;;7.10;99.90;;;;;;20989984;28;19920;-80
2021/10/28 19:00:16;;;;;;;;;;;7.10;99.90;;;;;;20988983;28;19920;-81
2021/10/28 19:10:17;;;;;;;;;;;6.70;99.90;;;;;;20973619;28;20287;-81
2021/10/28 19:20:20;;;;;;;;;;;6.50;99.90;;;;;;20965584;28;19913;-80
2021/10/28 19:30:37;;;;;;;;;;;6.20;99.90;;;;;;20986662;28;19924;-81
2021/10/28 19:40:52;;;;;;;;;;;6.20;99.90;;;;;;20966166;28;19924;-78
2021/10/28 19:50:53;;;;;;;;;;;6.30;99.90;;;;;;20971881;28;19920;-79
2021/10/28 20:01:00;;;;;;;;;;;6.30;99.90;;;;;;20969136;28;19920;-81
2021/10/28 20:21:21;;;;;;;;;;;6.30;99.90;;;;;;20974086;28;19944;-79
2021/10/28 20:31:22;;;;;;;;;;;5.50;99.90;;;;;;20938815;28;19929;-81
2021/10/28 20:41:24;;;;;;;;;;;5.60;99.90;;;;;;20947203;28;19921;-80
2021/10/28 20:51:25;;;;;;;;;;;5.70;99.90;;;;;;20940164;28;19932;-81
2021/10/28 21:01:26;;;;;;;;;;;6.00;99.90;;;;;;20920301;28;19939;-80
2021/10/28 21:11:27;;;;;;;;;;;6.10;99.90;;;;;;20953909;28;19921;-79
2021/10/28 21:21:28;;;;;;;;;;;6.20;99.90;;;;;;20927639;28;20396;-79
2021/10/28 21:31:29;;;;;;;;;;;6.20;99.90;;;;;;20958812;28;19948;-79
2021/10/28 21:41:30;;;;;;;;;;;6.20;99.90;;;;;;20962903;28;19944;-81
2021/10/28 21:51:30;;;;;;;;;;;6.10;99.90;;;;;;20976725;28;19959;-79
2021/10/28 22:01:45;;;;;;;;;;;6.00;99.90;;;;;;20993441;28;19956;-80
2021/10/28 22:32:26;;;;;;;;;;;5.50;99.90;;;;;;20978618;28;19970;-80
2021/10/28 22:42:27;;;;;;;;;;;5.50;99.90;;;;;;20993785;28;19912;-80
2021/10/28 22:52:29;;;;;;;;;;;5.20;99.90;;;;;;20989227;28;19971;-80
2021/10/28 23:02:46;;;;;;;;;;;4.80;99.90;;;;;;20993651;28;20277;-80
2021/10/28 23:23:06;;;;;;;;;;;4.50;99.90;;;;;;21008593;28;19913;-79
2021/10/28 23:33:08;;;;;;;;;;;4.40;99.90;;;;;;20991168;28;19917;-79
2021/10/28 23:43:09;;;;;;;;;;;4.40;99.90;;;;;;20989914;28;20445;-79
2021/10/28 23:53:09;;;;;;;;;;;4.40;99.90;;;;;;20987500;28;19921;-79
